createdAt,value
2023-02-22T00:01:07.724Z,5.07
2023-02-22T00:03:35.182Z,5.65
2023-02-22T00:06:05.240Z,5.28
2023-02-22T00:08:37.297Z,3.72
2023-02-22T00:11:10.754Z,6.40
2023-02-22T00:13:38.817Z,4.22
2023-02-22T00:16:06.597Z,4.88
2023-02-22T00:18:33.708Z,5.50
2023-02-22T00:21:01.570Z,5.55
2023-02-22T00:23:31.074Z,6.38
2023-02-22T00:25:59.940Z,5.00
2023-02-22T00:28:27.388Z,7.60
2023-02-22T00:30:55.171Z,5.70
2023-02-22T00:33:22.765Z,5.07
2023-02-22T00:35:49.977Z,5.32
2023-02-22T00:38:19.107Z,4.25
2023-02-22T00:40:46.529Z,5.50
2023-02-22T00:43:14.346Z,6.38
2023-02-22T00:45:42.686Z,5.05
2023-02-22T00:48:10.865Z,3.60
2023-02-22T00:50:38.264Z,6.03
2023-02-22T00:53:06.344Z,5.07
2023-02-22T00:55:35.844Z,3.92
2023-02-22T00:58:04.204Z,4.68
2023-02-22T01:00:35.321Z,5.68
2023-02-22T01:03:02.447Z,5.05
2023-02-22T01:05:30.861Z,7.03
2023-02-22T01:08:00.270Z,5.07
2023-02-22T01:10:29.839Z,5.93
2023-02-22T01:12:58.308Z,4.90
2023-02-22T01:15:29.090Z,6.13
2023-02-22T01:17:58.670Z,5.03
2023-02-22T01:20:27.333Z,5.55
2023-02-22T01:22:57.736Z,6.10
2023-02-22T01:25:28.713Z,7.43
2023-02-22T01:27:57.352Z,5.50
2023-02-22T01:30:27.995Z,4.15
2023-02-22T01:32:55.516Z,4.82
2023-02-22T01:35:26.295Z,4.13
2023-02-22T01:37:53.555Z,4.70
2023-02-22T01:40:26.980Z,4.97
2023-02-22T01:42:59.970Z,7.72
2023-02-22T01:45:30.309Z,7.25
2023-02-22T01:48:02.643Z,5.15
2023-02-22T01:50:32.667Z,5.00
2023-02-22T01:53:00.660Z,4.85
2023-02-22T01:55:28.841Z,6.18
2023-02-22T01:57:57.872Z,5.70
2023-02-22T02:00:27.813Z,6.20
2023-02-22T02:03:06.639Z,6.10
2023-02-22T02:05:35.213Z,6.60
2023-02-22T02:08:14.685Z,6.10
2023-02-22T02:10:44.151Z,3.97
2023-02-22T02:13:11.485Z,6.25
2023-02-22T02:15:58.635Z,4.00
2023-02-22T02:18:27.484Z,3.97
2023-02-22T02:21:01.087Z,5.68
2023-02-22T02:23:57.045Z,5.82
2023-02-22T02:27:01.316Z,6.28
2023-02-22T02:29:56.339Z,5.47
2023-02-22T02:32:38.253Z,4.10
2023-02-22T02:35:21.768Z,4.03
2023-02-22T02:38:03.366Z,4.20
2023-02-22T02:40:51.758Z,3.00
2023-02-22T02:43:26.523Z,5.35
2023-02-22T02:46:09.724Z,4.72
2023-02-22T02:48:41.930Z,7.13
2023-02-22T02:51:14.597Z,5.72
2023-02-22T02:53:47.023Z,5.40
2023-02-22T02:56:14.144Z,5.07
2023-02-22T02:58:49.194Z,7.35
2023-02-22T03:01:34.669Z,5.95
2023-02-22T03:04:13.507Z,5.57
2023-02-22T03:07:06.092Z,5.53
2023-02-22T03:09:54.875Z,3.65
2023-02-22T03:13:13.171Z,3.88
2023-02-22T03:15:43.209Z,4.47
2023-02-22T03:18:23.026Z,5.15
2023-02-22T03:20:59.572Z,4.00
2023-02-22T03:26:07.817Z,3.35
2023-02-22T03:28:41.303Z,3.22
2023-02-22T03:31:26.221Z,5.20
2023-02-22T03:33:59.578Z,5.72
2023-02-22T03:36:33.937Z,5.35
2023-02-22T03:39:04.420Z,6.20
2023-02-22T03:41:38.823Z,3.85
2023-02-22T03:44:11.234Z,5.75
2023-02-22T03:46:43.895Z,5.85
2023-02-22T03:49:31.688Z,6.05
2023-02-22T03:51:59.628Z,6.05
2023-02-22T03:54:28.877Z,4.45
2023-02-22T03:57:00.894Z,2.83
2023-02-22T03:59:29.866Z,5.15
2023-02-22T04:01:58.048Z,3.35
2023-02-22T04:04:26.002Z,4.57
2023-02-22T04:06:54.218Z,7.10
2023-02-22T04:09:22.082Z,4.93
2023-02-22T04:11:49.207Z,4.28
2023-02-22T04:14:16.869Z,4.65
2023-02-22T04:16:44.084Z,6.40
2023-02-22T04:19:11.220Z,5.95
2023-02-22T04:21:39.390Z,5.90
2023-02-22T04:24:11.988Z,5.60
2023-02-22T04:29:08.656Z,5.85
2023-02-22T04:31:39.035Z,6.13
2023-02-22T04:34:06.726Z,4.53
2023-02-22T04:36:37.490Z,4.20
2023-02-22T04:39:05.418Z,5.32
2023-02-22T04:41:33.484Z,5.25
2023-02-22T04:44:01.118Z,2.97
2023-02-22T04:46:29.222Z,5.45
2023-02-22T04:48:57.836Z,7.85
2023-02-22T04:51:27.965Z,3.72
2023-02-22T04:54:04.018Z,7.75
2023-02-22T04:56:33.570Z,5.38
2023-02-22T04:59:00.635Z,4.15
2023-02-22T05:01:33.725Z,5.72
2023-02-22T05:04:06.490Z,5.80
2023-02-22T05:06:33.971Z,5.22
2023-02-22T05:09:01.035Z,4.53
2023-02-22T05:11:28.308Z,4.97
2023-02-22T05:13:55.459Z,3.38
2023-02-22T05:16:22.582Z,3.08
2023-02-22T05:18:49.643Z,5.22
2023-02-22T05:21:16.954Z,4.90
2023-02-22T05:23:44.142Z,5.45
2023-02-22T05:26:11.750Z,4.40
2023-02-22T05:28:39.384Z,5.50
2023-02-22T05:31:07.615Z,3.20
2023-02-22T05:33:34.756Z,4.50
2023-02-22T05:36:02.164Z,3.00
2023-02-22T05:38:29.248Z,6.20
2023-02-22T05:40:57.108Z,4.95
2023-02-22T05:43:24.231Z,4.75
2023-02-22T05:45:51.270Z,6.18
2023-02-22T05:48:18.374Z,3.90
2023-02-22T05:50:45.419Z,4.97
2023-02-22T05:53:12.460Z,5.22
2023-02-22T05:55:40.348Z,4.88
2023-02-22T05:58:07.480Z,6.07
2023-02-22T06:00:34.561Z,5.38
2023-02-22T06:03:06.858Z,5.22
2023-02-22T06:05:34.330Z,6.60
2023-02-22T06:08:01.966Z,4.60
2023-02-22T06:10:29.199Z,6.45
2023-02-22T06:12:56.748Z,5.50
2023-02-22T06:15:25.623Z,5.47
2023-02-22T06:17:53.164Z,4.10
2023-02-22T06:20:22.898Z,3.72
2023-02-22T06:22:51.521Z,4.50
2023-02-22T06:25:21.331Z,6.97
2023-02-22T06:27:48.458Z,4.43
2023-02-22T06:30:18.093Z,4.03
2023-02-22T06:32:45.214Z,3.00
2023-02-22T06:35:12.311Z,5.93
2023-02-22T06:37:40.418Z,4.13
2023-02-22T06:40:07.754Z,5.45
2023-02-22T06:42:34.858Z,4.90
2023-02-22T06:45:01.894Z,5.10
2023-02-22T06:47:31.204Z,6.00
2023-02-22T06:50:01.176Z,5.45
2023-02-22T06:52:28.387Z,4.22
2023-02-22T06:54:55.422Z,7.88
2023-02-22T06:57:22.479Z,5.85
2023-02-22T06:59:49.528Z,4.28
2023-02-22T07:02:16.809Z,3.65
2023-02-22T07:04:45.328Z,4.57
2023-02-22T07:07:12.406Z,4.03
2023-02-22T07:09:39.410Z,6.43
2023-02-22T07:12:07.398Z,3.70
2023-02-22T07:14:34.468Z,6.03
2023-02-22T07:17:01.514Z,5.60
2023-02-22T07:19:28.564Z,5.38
2023-02-22T07:21:59.492Z,3.67
2023-02-22T07:24:30.346Z,5.22
2023-02-22T07:26:57.437Z,3.80
2023-02-22T07:29:24.457Z,4.65
2023-02-22T07:31:51.713Z,11.68
2023-02-22T07:34:18.741Z,5.28
2023-02-22T07:36:45.803Z,3.90
2023-02-22T07:39:12.843Z,5.40
2023-02-22T07:41:39.904Z,5.20
2023-02-22T07:44:21.627Z,3.80
2023-02-22T07:46:50.706Z,4.75
2023-02-22T07:49:18.282Z,5.10
2023-02-22T07:51:45.334Z,6.70
2023-02-22T07:54:12.391Z,6.05
2023-02-22T07:56:48.249Z,4.63
2023-02-22T07:59:16.399Z,6.35
2023-02-22T08:01:43.484Z,4.97
2023-02-22T08:04:10.586Z,3.55
2023-02-22T08:06:37.665Z,6.20
2023-02-22T08:09:05.379Z,5.05
2023-02-22T08:11:32.470Z,6.18
2023-02-22T08:13:59.579Z,4.85
2023-02-22T08:16:26.673Z,4.07
2023-02-22T08:18:53.729Z,4.13
2023-02-22T08:21:20.765Z,5.82
2023-02-22T08:23:52.215Z,5.65
2023-02-22T08:26:20.921Z,6.78
2023-02-22T08:28:49.295Z,4.53
2023-02-22T08:31:16.725Z,4.75
2023-02-22T08:33:47.115Z,4.78
2023-02-22T08:38:41.196Z,3.50
2023-02-22T08:41:08.244Z,6.18
2023-02-22T08:43:35.296Z,4.55
2023-02-22T08:46:02.409Z,5.28
2023-02-22T08:48:29.505Z,4.10
2023-02-22T08:50:56.630Z,4.45
2023-02-22T08:53:23.792Z,4.57
2023-02-22T08:55:50.816Z,5.30
2023-02-22T08:58:17.855Z,5.50
2023-02-22T09:00:45.334Z,6.07
2023-02-22T09:03:15.388Z,6.13
2023-02-22T09:05:44.234Z,6.32
2023-02-22T09:08:11.608Z,5.28
2023-02-22T09:10:39.089Z,6.57
2023-02-22T09:13:06.586Z,6.90
2023-02-22T09:15:36.344Z,4.93
2023-02-22T09:18:05.414Z,5.90
2023-02-22T09:20:32.518Z,6.80
2023-02-22T09:22:59.780Z,5.57
2023-02-22T09:25:27.371Z,7.20
2023-02-22T09:27:55.304Z,6.10
2023-02-22T09:30:25.034Z,6.90
2023-02-22T09:32:54.577Z,6.50
2023-02-22T09:35:27.570Z,7.20
2023-02-22T09:38:00.803Z,6.40
2023-02-22T09:40:31.107Z,6.53
2023-02-22T09:43:35.875Z,6.82
2023-02-22T09:46:03.137Z,6.35
2023-02-22T09:48:36.524Z,6.60
2023-02-22T09:51:15.492Z,7.60
2023-02-22T09:53:46.913Z,6.97
2023-02-22T09:56:18.325Z,7.57
2023-02-22T09:58:48.901Z,6.90
2023-02-22T10:01:32.912Z,7.20
2023-02-22T10:04:18.858Z,6.78
2023-02-22T10:07:12.050Z,6.25
2023-02-22T10:09:45.230Z,5.88
2023-02-22T10:12:41.016Z,5.90
2023-02-22T10:15:41.401Z,6.55
2023-02-22T10:18:27.429Z,7.50
2023-02-22T10:21:07.711Z,7.80
2023-02-22T10:23:59.599Z,8.00
2023-02-22T10:26:32.530Z,6.45
2023-02-22T10:29:12.461Z,9.13
2023-02-22T10:31:45.773Z,6.40
2023-02-22T10:34:20.689Z,7.25
2023-02-22T10:36:51.486Z,7.22
2023-02-22T10:39:30.655Z,7.95
2023-02-22T10:42:06.148Z,7.40
2023-02-22T10:47:07.458Z,7.75
2023-02-22T10:49:46.517Z,7.63
2023-02-22T10:52:19.999Z,7.45
2023-02-22T10:54:50.470Z,6.65
2023-02-22T10:57:23.116Z,7.50
2023-02-22T10:59:52.143Z,7.95
2023-02-22T11:02:30.790Z,6.32
2023-02-22T11:05:00.703Z,7.43
2023-02-22T11:07:32.594Z,7.13
2023-02-22T11:10:09.763Z,7.53
2023-02-22T11:12:48.734Z,6.25
2023-02-22T11:15:24.551Z,6.97
2023-02-22T11:17:55.360Z,7.18
2023-02-22T11:20:28.930Z,7.05
2023-02-22T11:23:00.121Z,6.65
2023-02-22T11:25:32.764Z,6.95
2023-02-22T11:28:31.222Z,5.95
2023-02-22T11:31:10.626Z,5.95
2023-02-22T11:33:38.990Z,7.43
2023-02-22T11:36:09.492Z,6.97
2023-02-22T11:38:39.203Z,6.03
2023-02-22T11:43:47.725Z,6.88
2023-02-22T11:49:07.031Z,6.90
2023-02-22T11:51:46.462Z,6.50
2023-02-22T11:54:31.685Z,6.15
2023-02-22T11:57:18.706Z,7.05
2023-02-22T11:59:55.982Z,6.65
2023-02-22T12:02:23.041Z,7.10
2023-02-22T12:05:26.632Z,5.97
2023-02-22T12:08:18.944Z,6.32
2023-02-22T12:13:45.635Z,5.47
2023-02-22T12:16:44.372Z,5.57
2023-02-22T12:19:36.259Z,6.18
2023-02-22T12:22:15.494Z,5.00
2023-02-22T12:25:09.707Z,6.20
2023-02-22T12:27:46.106Z,5.07
2023-02-22T12:30:25.192Z,7.95
2023-02-22T12:32:55.544Z,6.30
2023-02-22T12:35:36.214Z,6.45
2023-02-22T12:38:31.336Z,6.72
2023-02-22T12:41:34.515Z,6.88
2023-02-22T12:44:25.006Z,6.72
2023-02-22T12:46:56.922Z,6.38
2023-02-22T12:49:59.375Z,6.47
2023-02-22T12:53:08.767Z,6.18
2023-02-22T12:56:22.610Z,6.05
2023-02-22T12:59:20.533Z,6.40
2023-02-22T13:01:56.238Z,6.47
2023-02-22T13:06:58.058Z,7.07
2023-02-22T13:09:42.309Z,6.03
2023-02-22T13:12:31.733Z,6.57
2023-02-22T13:15:23.092Z,5.13
2023-02-22T13:18:02.044Z,6.07
2023-02-22T13:20:37.781Z,5.38
2023-02-22T13:23:12.491Z,5.15
2023-02-22T13:25:55.377Z,6.82
2023-02-22T13:28:40.055Z,5.18
2023-02-22T13:31:26.792Z,5.90
2023-02-22T13:34:47.852Z,5.65
2023-02-22T13:37:39.629Z,5.15
2023-02-22T13:40:35.816Z,5.43
2023-02-22T13:43:08.536Z,5.00
2023-02-22T13:46:02.921Z,5.10
2023-02-22T13:49:03.916Z,5.10
2023-02-22T13:51:37.011Z,4.68
2023-02-22T13:54:16.503Z,4.32
2023-02-22T13:56:49.797Z,5.25
2023-02-22T13:59:30.082Z,4.82
2023-02-22T14:01:59.761Z,4.40
2023-02-22T14:04:29.811Z,4.97
2023-02-22T14:09:53.911Z,4.30
2023-02-22T14:12:50.372Z,4.43
2023-02-22T14:15:29.172Z,4.78
2023-02-22T14:17:56.993Z,4.38
2023-02-22T14:20:31.287Z,4.75
2023-02-22T14:23:18.287Z,3.47
2023-02-22T14:25:45.747Z,3.53
2023-02-22T14:28:37.785Z,4.70
2023-02-22T14:31:33.206Z,4.55
2023-02-22T14:34:42.751Z,3.88
2023-02-22T14:37:17.531Z,3.25
2023-02-22T14:40:18.501Z,2.45
2023-02-22T14:42:51.251Z,3.95
2023-02-22T14:45:25.009Z,3.90
2023-02-22T14:48:20.690Z,4.15
2023-02-22T14:50:53.467Z,3.90
2023-02-22T14:53:33.921Z,3.40
2023-02-22T14:56:07.039Z,3.10
2023-02-22T14:58:45.365Z,3.33
2023-02-22T15:01:44.440Z,3.22
2023-02-22T15:04:26.416Z,3.95
2023-02-22T15:06:55.392Z,3.50
2023-02-22T15:09:28.521Z,3.38
2023-02-22T15:12:05.545Z,2.97
2023-02-22T15:14:41.880Z,3.53
2023-02-22T15:17:22.029Z,3.40
2023-02-22T15:19:49.897Z,4.43
2023-02-22T15:22:27.357Z,4.20
2023-02-22T15:25:03.588Z,3.15
2023-02-22T15:27:36.994Z,3.70
2023-02-22T15:30:21.196Z,2.78
2023-02-22T15:33:03.091Z,4.20
2023-02-22T15:35:33.690Z,4.28
2023-02-22T15:38:11.658Z,4.60
2023-02-22T15:40:43.510Z,4.53
2023-02-22T15:43:24.443Z,3.00
2023-02-22T15:45:52.294Z,3.25
2023-02-22T15:48:19.878Z,4.60
2023-02-22T15:51:07.580Z,4.32
2023-02-22T15:53:51.098Z,3.35
2023-02-22T15:56:26.976Z,3.20
2023-02-22T15:59:18.469Z,2.95
2023-02-22T16:01:48.871Z,4.38
2023-02-22T16:04:22.695Z,3.38
2023-02-22T16:06:51.893Z,2.97
2023-02-22T16:09:29.698Z,3.17
2023-02-22T16:12:22.873Z,4.30
2023-02-22T16:14:52.474Z,2.95
2023-02-22T16:17:29.742Z,4.28
2023-02-22T16:20:01.312Z,3.63
2023-02-22T16:22:33.943Z,3.10
2023-02-22T16:25:19.497Z,3.25
2023-02-22T16:27:59.991Z,3.33
2023-02-22T16:30:32.547Z,5.28
2023-02-22T16:33:01.092Z,3.72
2023-02-22T16:35:29.585Z,2.22
2023-02-22T16:38:06.553Z,3.88
2023-02-22T16:40:35.185Z,3.15
2023-02-22T16:43:06.202Z,3.78
2023-02-22T16:45:33.376Z,3.85
2023-02-22T16:48:02.655Z,2.88
2023-02-22T16:50:29.675Z,3.90
2023-02-22T16:52:58.734Z,3.58
2023-02-22T16:55:26.410Z,3.40
2023-02-22T16:58:01.143Z,4.95
2023-02-22T17:00:31.817Z,2.72
2023-02-22T17:03:04.024Z,3.72
2023-02-22T17:05:36.302Z,3.97
2023-02-22T17:08:04.615Z,4.05
2023-02-22T17:10:31.866Z,3.47
2023-02-22T17:13:03.510Z,3.40
2023-02-22T17:15:36.139Z,2.97
2023-02-22T17:18:14.119Z,4.60
2023-02-22T17:20:41.285Z,3.65
2023-02-22T17:23:09.912Z,3.50
2023-02-22T17:25:46.089Z,4.55
2023-02-22T17:28:14.234Z,4.15
2023-02-22T17:30:41.761Z,3.42
2023-02-22T17:33:10.160Z,3.42
2023-02-22T17:35:39.486Z,3.97
2023-02-22T17:38:06.878Z,3.90
2023-02-22T17:40:39.473Z,3.17
2023-02-22T17:43:10.654Z,3.97
2023-02-22T17:45:39.251Z,4.38
2023-02-22T17:48:06.874Z,5.03
2023-02-22T17:50:37.386Z,3.55
2023-02-22T17:53:04.572Z,4.20
2023-02-22T17:55:34.008Z,4.75
2023-02-22T17:58:01.192Z,4.22
2023-02-22T18:00:35.220Z,4.18
2023-02-22T18:03:06.531Z,4.75
2023-02-22T18:05:39.293Z,3.28
2023-02-22T18:08:06.560Z,3.55
2023-02-22T18:10:34.013Z,3.13
2023-02-22T18:13:02.170Z,3.83
2023-02-22T18:15:30.229Z,4.05
2023-02-22T18:17:57.277Z,4.28
2023-02-22T18:20:31.303Z,3.08
2023-02-22T18:22:59.240Z,2.78
2023-02-22T18:25:27.525Z,4.55
2023-02-22T18:27:55.119Z,3.90
2023-02-22T18:30:22.361Z,4.00
2023-02-22T18:32:49.468Z,3.33
2023-02-22T18:35:16.624Z,3.58
2023-02-22T18:37:44.617Z,3.90
2023-02-22T18:40:11.827Z,3.78
2023-02-22T18:42:40.610Z,3.38
2023-02-22T18:45:08.204Z,3.35
2023-02-22T18:47:40.884Z,3.08
2023-02-22T18:50:09.422Z,4.18
2023-02-22T18:52:46.375Z,3.70
2023-02-22T18:55:19.977Z,3.58
2023-02-22T18:57:47.580Z,3.58
2023-02-22T19:00:18.010Z,4.50
2023-02-22T19:02:45.294Z,4.78
2023-02-22T19:05:17.454Z,3.50
2023-02-22T19:07:45.184Z,3.60
2023-02-22T19:10:13.252Z,3.50
2023-02-22T19:12:40.443Z,3.72
2023-02-22T19:15:08.272Z,4.25
2023-02-22T19:17:36.705Z,3.35
2023-02-22T19:20:07.615Z,3.42
2023-02-22T19:22:34.894Z,3.03
2023-02-22T19:25:03.350Z,3.72
2023-02-22T19:27:30.893Z,2.90
2023-02-22T19:29:58.687Z,4.15
2023-02-22T19:32:26.349Z,3.35
2023-02-22T19:35:02.200Z,3.38
2023-02-22T19:37:35.640Z,2.80
2023-02-22T19:40:07.377Z,3.08
2023-02-22T19:42:34.755Z,3.15
2023-02-22T19:45:01.860Z,3.17
2023-02-22T19:47:30.700Z,3.38
2023-02-22T19:49:59.773Z,2.20
2023-02-22T19:52:29.044Z,3.70
2023-02-22T19:54:56.207Z,4.78
2023-02-22T19:57:24.450Z,2.92
2023-02-22T19:59:51.955Z,3.97
2023-02-22T20:02:20.580Z,3.85
2023-02-22T20:04:50.201Z,2.95
2023-02-22T20:07:17.299Z,3.47
2023-02-22T20:09:44.557Z,2.80
2023-02-22T20:12:11.623Z,4.25
2023-02-22T20:14:38.951Z,2.75
2023-02-22T20:17:08.072Z,3.50
2023-02-22T20:19:37.355Z,4.30
2023-02-22T20:22:04.509Z,3.33
2023-02-22T20:24:31.604Z,4.47
2023-02-22T20:26:58.715Z,3.28
2023-02-22T20:29:32.095Z,2.72
2023-02-22T20:32:00.715Z,3.28
2023-02-22T20:34:31.552Z,2.85
2023-02-22T20:36:59.038Z,3.55
2023-02-22T20:39:26.617Z,3.10
2023-02-22T20:41:54.729Z,2.85
2023-02-22T20:44:22.415Z,3.22
2023-02-22T20:46:49.655Z,2.92
2023-02-22T20:49:19.137Z,2.88
2023-02-22T20:51:47.070Z,2.83
2023-02-22T20:54:15.377Z,4.43
2023-02-22T20:56:44.408Z,2.88
2023-02-22T20:59:13.956Z,3.75
2023-02-22T21:01:41.079Z,3.42
2023-02-22T21:04:12.268Z,3.75
2023-02-22T21:06:40.630Z,1.80
2023-02-22T21:09:14.924Z,2.85
2023-02-22T21:11:42.951Z,4.78
2023-02-22T21:14:16.790Z,2.50
2023-02-22T21:16:46.842Z,2.65
2023-02-22T21:19:25.667Z,2.97
2023-02-22T21:21:55.249Z,4.28
2023-02-22T21:24:24.146Z,3.50
2023-02-22T21:26:52.116Z,3.33
2023-02-22T21:29:19.999Z,3.40
2023-02-22T21:31:47.130Z,2.53
2023-02-22T21:34:17.614Z,4.18
2023-02-22T21:36:45.833Z,3.38
2023-02-22T21:39:20.680Z,3.65
2023-02-22T21:41:50.275Z,3.95
2023-02-22T21:44:18.653Z,2.50
2023-02-22T21:46:48.902Z,3.35
2023-02-22T21:49:16.223Z,3.75
2023-02-22T21:51:45.053Z,2.88
2023-02-22T21:54:12.987Z,3.30
2023-02-22T21:56:42.493Z,3.25
2023-02-22T21:59:21.049Z,3.42
2023-02-22T22:01:51.699Z,3.15
2023-02-22T22:04:28.670Z,4.53
2023-02-22T22:06:57.667Z,4.00
2023-02-22T22:09:28.987Z,2.88
2023-02-22T22:11:58.525Z,4.05
2023-02-22T22:14:27.334Z,2.85
2023-02-22T22:16:58.734Z,3.20
2023-02-22T22:19:27.273Z,3.72
2023-02-22T22:21:54.586Z,2.80
2023-02-22T22:24:22.847Z,3.90
2023-02-22T22:26:55.817Z,3.47
2023-02-22T22:29:24.747Z,3.97
2023-02-22T22:31:52.656Z,3.80
2023-02-22T22:34:19.782Z,2.78
2023-02-22T22:36:47.632Z,2.45
2023-02-22T22:39:14.686Z,3.22
2023-02-22T22:41:45.574Z,3.10
2023-02-22T22:44:15.535Z,2.95
2023-02-22T22:46:43.723Z,2.90
2023-02-22T22:49:13.730Z,2.50
2023-02-22T22:51:42.654Z,3.63
2023-02-22T22:54:10.653Z,3.17
2023-02-22T22:56:38.872Z,2.55
2023-02-22T22:59:07.755Z,3.63
2023-02-22T23:01:39.540Z,3.13
2023-02-22T23:04:10.054Z,3.10
2023-02-22T23:06:40.748Z,2.45
2023-02-22T23:09:18.833Z,3.55
2023-02-22T23:11:50.948Z,2.28
2023-02-22T23:14:27.010Z,2.83
2023-02-22T23:17:00.188Z,2.83
2023-02-22T23:19:27.253Z,3.45
2023-02-22T23:21:56.160Z,3.15
2023-02-22T23:24:27.477Z,2.83
2023-02-22T23:27:00.113Z,2.78
2023-02-22T23:29:30.059Z,3.33
2023-02-22T23:31:58.904Z,3.35
2023-02-22T23:34:28.501Z,2.92
2023-02-22T23:36:55.554Z,2.53
2023-02-22T23:39:24.474Z,2.70
2023-02-22T23:41:53.543Z,2.78
2023-02-22T23:44:21.862Z,2.92
2023-02-22T23:46:55.509Z,3.00
2023-02-22T23:49:26.532Z,2.85
2023-02-22T23:51:53.634Z,2.83
2023-02-22T23:54:21.717Z,2.67
2023-02-22T23:56:58.582Z,2.42
2023-02-22T23:59:27.230Z,2.65
